GMMIGMAD

Guest
Details From GMMI - MOGADOR INTL
To GMAD - Agadir AL MASSIRA
Flight Number -
Tags generated
Created
Modified
Stats Distance 66 nm / 122 km
Max Altitude 11,500 ft / 3,505 m
Waypoints 4
Social Downloads 1
Likes 0
Share VATSIM

Download

Looking for another format? Having issues loading an existing format? Contact us
Advertisement - Login to hide

Notes

Basic altitude profile: - Ascent Rate: 2500ft/min - Ascent Speed: 250kts - Cruise Altitude: 35000ft - Cruise Speed: 420kts - Descent Rate: 1500ft/min - Descent Speed: 250kts Options: - Use NATs: yes - Use PACOTS: yes - Use low airways: yes - Use high airways: no

Route

GMMI DENOB R724 AGALI GMAD

ID Type Via Altitude Latitude Longitude Leg Dist Tot Dist Heading (true) Name
O GMMI APT - 0 ft / 0 m 31.39709˚ -9.68204˚ - 0 nm - MOGADOR INTL
DENOB FIX - 7,600 ft / 2,316 m 31.05167˚ -9.58944˚ 21 nm 21 nm 167° / 167° -
AGALI FIX R724 (AWY-LO) 11,500 ft / 3,505 m 30.72778˚ -9.49667˚ 20 nm 41 nm 166° / 166° -
O GMAD APT - 0 ft / 0 m 30.32262˚ -9.41153˚ 24 nm 66 nm 170° / 170° Agadir AL MASSIRA

Altitude Profile

Advertisement - Login to hide

GMMI

Details ICAO GMMI (ESU)
Name MOGADOR INTL
Region Morocco
Timezone Africa/Casablanca (UTC+0.0)
Stats Elevation 384 ft / 117 m (AMSL)
Location 31.397091° -9.682044°
Runways 1
Magnetic Variation 2.529° W

METAR

GMMI 142200Z AUTO 08006KT //// NCD ///// Q1023 NOSIG

Decode

TAF

TAF GMMI 141700Z 1418/1524 36012KT 6000 NSC

Decode

Departure Runways

ID Width Length Bearing (true) Bearing (mag) Surface Threshold Offset Overrun Length
16 148 ft / 45 m 6,868 ft / 2,093 m 158.80° 161.33° Asphalt 0 ft / 0 m 0 ft / 0 m
34 148 ft / 45 m 6,868 ft / 2,093 m 338.80° 341.33° Asphalt 0 ft / 0 m 0 ft / 0 m

GMAD

Details ICAO GMAD
Name Agadir AL MASSIRA
Region Morocco
Timezone Africa/Casablanca (UTC+0.0)
Stats Elevation 250 ft / 76 m (AMSL)
Location 30.322623° -9.411528°
Runways 1
Magnetic Variation 2.482° W

METAR

GMAD 142230Z 22005KT 180V260 CAVOK 14/12 Q1022 NOSIG

Decode

TAF

TAF GMAD 141700Z 1418/1524 22007KT CAVOK= TAF GMME 141700Z 1418/1524 36006KT CAVOK TEMPO 1500/1506 14008KT 6000 SCT010 BKN020 PROB40 TEMPO 1512/1518 24014KT 5000 RA BKN010 SCT016 BKN080 TEMPO 1518/1524 18012KT 3000 SHRA SCT012TCU BKN016 FEW023CB

Decode

Destination Runways

ID Width Length Bearing (true) Bearing (mag) Surface Threshold Offset Overrun Length
10 148 ft / 45 m 10,509 ft / 3,203 m 91.58° 94.06° Asphalt 0 ft / 0 m 0 ft / 0 m
28 148 ft / 45 m 10,509 ft / 3,203 m 271.60° 274.08° Asphalt 0 ft / 0 m 0 ft / 0 m

Approach Navaids

Runway Type Ident Frequency Range Bearing (true) Bearing (mag) Slope Elevation
28 Localiser ADA 110.30 MHz 18 nm / 33 km 273.07° 275.55° - 250 ft / 76 m (AMSL)
28 Glidescope ADA 110.30 MHz 10 nm / 19 km 271.59° 274.07° 3.00° 250 ft / 76 m (AMSL)